sensor_id;sensor_type;location;lat;lon;timestamp;pressure;altitude;pressure_sealevel;temperature;humidity
71059;BME280;70265;47.576;19.270;2023-08-21T00:00:51;99257.44;;;22.11;94.47
71059;BME280;70265;47.576;19.270;2023-08-21T00:01:53;99263.56;;;22.11;94.31
71059;BME280;70265;47.576;19.270;2023-08-21T00:02:56;99255.78;;;22.10;94.32
71059;BME280;70265;47.576;19.270;2023-08-21T00:03:57;99261.72;;;22.12;93.94
71059;BME280;70265;47.576;19.270;2023-08-21T00:05:03;99255.53;;;22.11;93.62
71059;BME280;70265;47.576;19.270;2023-08-21T00:06:04;99259.03;;;22.12;93.72
71059;BME280;70265;47.576;19.270;2023-08-21T00:07:08;99266.63;;;22.15;93.52
71059;BME280;70265;47.576;19.270;2023-08-21T00:08:10;99265.38;;;22.17;93.29
71059;BME280;70265;47.576;19.270;2023-08-21T00:09:13;99258.56;;;22.21;92.94
71059;BME280;70265;47.576;19.270;2023-08-21T00:10:15;99264.72;;;22.22;92.59
71059;BME280;70265;47.576;19.270;2023-08-21T00:11:19;99270.69;;;22.24;92.46
71059;BME280;70265;47.576;19.270;2023-08-21T00:12:20;99263.50;;;22.24;92.71
71059;BME280;70265;47.576;19.270;2023-08-21T00:13:26;99261.19;;;22.28;92.34
71059;BME280;70265;47.576;19.270;2023-08-21T00:14:27;99263.88;;;22.28;92.33
71059;BME280;70265;47.576;19.270;2023-08-21T00:15:31;99260.13;;;22.29;92.06
71059;BME280;70265;47.576;19.270;2023-08-21T00:16:32;99259.56;;;22.27;92.50
71059;BME280;70265;47.576;19.270;2023-08-21T00:17:35;99260.00;;;22.24;93.24
71059;BME280;70265;47.576;19.270;2023-08-21T00:18:36;99264.91;;;22.27;93.00
71059;BME280;70265;47.576;19.270;2023-08-21T00:19:40;99268.59;;;22.26;93.16
71059;BME280;70265;47.576;19.270;2023-08-21T00:20:41;99265.53;;;22.22;93.55
71059;BME280;70265;47.576;19.270;2023-08-21T00:21:45;99274.63;;;22.21;93.60
71059;BME280;70265;47.576;19.270;2023-08-21T00:22:46;99270.50;;;22.19;94.09
71059;BME280;70265;47.576;19.270;2023-08-21T00:23:50;99270.50;;;22.19;93.99
71059;BME280;70265;47.576;19.270;2023-08-21T00:24:51;99270.50;;;22.19;94.17
71059;BME280;70265;47.576;19.270;2023-08-21T00:25:54;99268.88;;;22.18;94.12
71059;BME280;70265;47.576;19.270;2023-08-21T00:26:56;99272.59;;;22.17;94.65
71059;BME280;70265;47.576;19.270;2023-08-21T00:27:59;99273.66;;;22.09;95.73
71059;BME280;70265;47.576;19.270;2023-08-21T00:29:03;99272.00;;;22.08;95.58
71059;BME280;70265;47.576;19.270;2023-08-21T00:30:08;99271.84;;;22.03;97.00
71059;BME280;70265;47.576;19.270;2023-08-21T00:31:10;99274.72;;;22.02;96.91
71059;BME280;70265;47.576;19.270;2023-08-21T00:32:13;99278.13;;;21.91;97.24
71059;BME280;70265;47.576;19.270;2023-08-21T00:33:14;99276.88;;;21.87;97.87
71059;BME280;70265;47.576;19.270;2023-08-21T00:34:16;99272.09;;;21.57;98.11
71059;BME280;70265;47.576;19.270;2023-08-21T00:35:19;99284.91;;;21.42;99.65
71059;BME280;70265;47.576;19.270;2023-08-21T00:36:20;99275.81;;;21.56;99.21
71059;BME280;70265;47.576;19.270;2023-08-21T00:37:24;99281.34;;;21.55;98.99
71059;BME280;70265;47.576;19.270;2023-08-21T00:38:25;99282.16;;;21.55;99.22
71059;BME280;70265;47.576;19.270;2023-08-21T00:39:29;99279.19;;;21.32;100.00
71059;BME280;70265;47.576;19.270;2023-08-21T00:40:33;99282.63;;;21.46;99.83
71059;BME280;70265;47.576;19.270;2023-08-21T00:41:37;99279.06;;;21.58;99.02
71059;BME280;70265;47.576;19.270;2023-08-21T00:42:38;99278.22;;;21.64;98.64
71059;BME280;70265;47.576;19.270;2023-08-21T00:43:41;99278.59;;;21.68;98.30
71059;BME280;70265;47.576;19.270;2023-08-21T00:44:45;99281.91;;;21.70;98.57
71059;BME280;70265;47.576;19.270;2023-08-21T00:45:50;99278.16;;;21.71;98.37
71059;BME280;70265;47.576;19.270;2023-08-21T00:46:51;99286.41;;;21.69;98.98
71059;BME280;70265;47.576;19.270;2023-08-21T00:47:55;99278.78;;;21.73;98.66
71059;BME280;70265;47.576;19.270;2023-08-21T00:48:56;99281.03;;;21.76;98.45
71059;BME280;70265;47.576;19.270;2023-08-21T00:50:01;99280.81;;;21.77;98.46
71059;BME280;70265;47.576;19.270;2023-08-21T00:51:03;99278.13;;;21.77;98.58
71059;BME280;70265;47.576;19.270;2023-08-21T00:52:11;99281.63;;;21.78;98.51
71059;BME280;70265;47.576;19.270;2023-08-21T00:53:13;99283.47;;;21.77;98.65
71059;BME280;70265;47.576;19.270;2023-08-21T00:54:14;99287.78;;;21.78;98.46
71059;BME280;70265;47.576;19.270;2023-08-21T00:55:19;99281.63;;;21.78;98.58
71059;BME280;70265;47.576;19.270;2023-08-21T00:56:20;99294.16;;;21.77;98.56
71059;BME280;70265;47.576;19.270;2023-08-21T00:57:24;99284.53;;;21.76;98.73
71059;BME280;70265;47.576;19.270;2023-08-21T00:58:26;99288.81;;;21.77;98.93
71059;BME280;70265;47.576;19.270;2023-08-21T00:59:30;99287.78;;;21.78;99.02
71059;BME280;70265;47.576;19.270;2023-08-21T01:00:35;99289.25;;;21.74;99.08
71059;BME280;70265;47.576;19.270;2023-08-21T01:01:39;99285.56;;;21.75;99.22
71059;BME280;70265;47.576;19.270;2023-08-21T01:02:41;99287.19;;;21.76;99.50
71059;BME280;70265;47.576;19.270;2023-08-21T01:03:44;99281.84;;;21.76;99.51
71059;BME280;70265;47.576;19.270;2023-08-21T01:04:46;99284.34;;;21.71;100.00
71059;BME280;70265;47.576;19.270;2023-08-21T01:05:50;99278.56;;;21.74;100.00
71059;BME280;70265;47.576;19.270;2023-08-21T01:06:51;99272.03;;;21.70;100.00
71059;BME280;70265;47.576;19.270;2023-08-21T01:08:00;99277.78;;;21.67;100.00
71059;BME280;70265;47.576;19.270;2023-08-21T01:09:08;99286.41;;;21.69;100.00
71059;BME280;70265;47.576;19.270;2023-08-21T01:10:20;99286.22;;;21.64;100.00
71059;BME280;70265;47.576;19.270;2023-08-21T01:11:28;99287.28;;;21.63;100.00
71059;BME280;70265;47.576;19.270;2023-08-21T01:12:39;99287.88;;;21.65;100.00
71059;BME280;70265;47.576;19.270;2023-08-21T01:13:48;99288.47;;;21.67;100.00
71059;BME280;70265;47.576;19.270;2023-08-21T01:14:59;99287.66;;;21.67;100.00
71059;BME280;70265;47.576;19.270;2023-08-21T01:16:05;99291.56;;;21.64;100.00
71059;BME280;70265;47.576;19.270;2023-08-21T01:17:10;99291.56;;;21.64;100.00
71059;BME280;70265;47.576;19.270;2023-08-21T01:18:14;99291.34;;;21.66;100.00
71059;BME280;70265;47.576;19.270;2023-08-21T01:19:24;99286.63;;;21.68;100.00
71059;BME280;70265;47.576;19.270;2023-08-21T01:20:29;99286.41;;;21.69;100.00
71059;BME280;70265;47.576;19.270;2023-08-21T01:21:31;99289.56;;;21.60;100.00
71059;BME280;70265;47.576;19.270;2023-08-21T01:22:36;99287.88;;;21.65;100.00
71059;BME280;70265;47.576;19.270;2023-08-21T01:23:41;99286.84;;;21.66;100.00
71059;BME280;70265;47.576;19.270;2023-08-21T01:24:45;99290.13;;;21.62;100.00
71059;BME280;70265;47.576;19.270;2023-08-21T01:25:46;99283.97;;;21.61;100.00
71059;BME280;70265;47.576;19.270;2023-08-21T01:26:49;99277.63;;;21.62;100.00
71059;BME280;70265;47.576;19.270;2023-08-21T01:27:51;99283.34;;;21.66;100.00
71059;BME280;70265;47.576;19.270;2023-08-21T01:28:54;99292.19;;;21.66;100.00
71059;BME280;70265;47.576;19.270;2023-08-21T01:29:56;99294.22;;;21.64;100.00
71059;BME280;70265;47.576;19.270;2023-08-21T01:31:04;99291.91;;;21.74;100.00
71059;BME280;70265;47.576;19.270;2023-08-21T01:32:09;99291.13;;;21.67;100.00
71059;BME280;70265;47.576;19.270;2023-08-21T01:33:18;99281.50;;;21.66;100.00
71059;BME280;70265;47.576;19.270;2023-08-21T01:34:20;99285.78;;;21.67;100.00
71059;BME280;70265;47.576;19.270;2023-08-21T01:35:25;99280.69;;;21.66;100.00
71059;BME280;70265;47.576;19.270;2023-08-21T01:36:29;99286.88;;;21.60;100.00
71059;BME280;70265;47.576;19.270;2023-08-21T01:37:34;99281.72;;;21.58;100.00
71059;BME280;70265;47.576;19.270;2023-08-21T01:38:36;99282.56;;;21.59;100.00
71059;BME280;70265;47.576;19.270;2023-08-21T01:39:43;99285.22;;;21.59;100.00
71059;BME280;70265;47.576;19.270;2023-08-21T01:40:46;99286.06;;;21.59;100.00
71059;BME280;70265;47.576;19.270;2023-08-21T01:41:50;99286.88;;;21.60;100.00
71059;BME280;70265;47.576;19.270;2023-08-21T01:42:52;99289.97;;;21.57;100.00
71059;BME280;70265;47.576;19.270;2023-08-21T01:43:56;99288.94;;;21.58;100.00
71059;BME280;70265;47.576;19.270;2023-08-21T01:44:57;99285.22;;;21.59;100.00
71059;BME280;70265;47.576;19.270;2023-08-21T01:46:01;99283.78;;;21.63;100.00
71059;BME280;70265;47.576;19.270;2023-08-21T01:47:06;99284.38;;;21.65;100.00
71059;BME280;70265;47.576;19.270;2023-08-21T01:48:10;99278.00;;;21.66;100.00
71059;BME280;70265;47.576;19.270;2023-08-21T01:49:11;99288.47;;;21.67;100.00
71059;BME280;70265;47.576;19.270;2023-08-21T01:50:15;99285.59;;;21.69;100.00
71059;BME280;70265;47.576;19.270;2023-08-21T01:51:17;99288.06;;;21.70;100.00
71059;BME280;70265;47.576;19.270;2023-08-21T01:52:21;99287.84;;;21.72;100.00
71059;BME280;70265;47.576;19.270;2023-08-21T01:53:22;99289.88;;;21.76;100.00
71059;BME280;70265;47.576;19.270;2023-08-21T01:54:26;99291.09;;;21.80;100.00
71059;BME280;70265;47.576;19.270;2023-08-21T01:55:30;99288.41;;;21.80;100.00
71059;BME280;70265;47.576;19.270;2023-08-21T01:56:33;99290.03;;;21.81;100.00
71059;BME280;70265;47.576;19.270;2023-08-21T01:57:35;99297.63;;;21.84;100.00
71059;BME280;70265;47.576;19.270;2023-08-21T01:58:39;99292.50;;;21.90;100.00
71059;BME280;70265;47.576;19.270;2023-08-21T01:59:41;99287.75;;;21.92;100.00
71059;BME280;70265;47.576;19.270;2023-08-21T02:00:46;99295.31;;;21.95;100.00
71059;BME280;70265;47.576;19.270;2023-08-21T02:01:47;99296.97;;;21.96;100.00
71059;BME280;70265;47.576;19.270;2023-08-21T02:02:51;99287.09;;;21.96;99.67
71059;BME280;70265;47.576;19.270;2023-08-21T02:03:52;99289.56;;;21.98;99.67
71059;BME280;70265;47.576;19.270;2023-08-21T02:04:56;99296.09;;;22.02;99.32
71059;BME280;70265;47.576;19.270;2023-08-21T02:05:57;99292.00;;;21.99;99.14
71059;BME280;70265;47.576;19.270;2023-08-21T02:07:01;99292.84;;;22.00;99.11
71059;BME280;70265;47.576;19.270;2023-08-21T02:08:03;99296.72;;;22.04;98.84
71059;BME280;70265;47.576;19.270;2023-08-21T02:09:06;99294.25;;;22.02;98.96
71059;BME280;70265;47.576;19.270;2023-08-21T02:10:09;99289.72;;;22.03;99.08
71059;BME280;70265;47.576;19.270;2023-08-21T02:11:16;99298.56;;;22.03;99.02
71059;BME280;70265;47.576;19.270;2023-08-21T02:12:18;99301.00;;;22.05;98.57
71059;BME280;70265;47.576;19.270;2023-08-21T02:13:22;99296.94;;;22.02;98.86
71059;BME280;70265;47.576;19.270;2023-08-21T02:14:23;99293.44;;;22.02;98.63
71059;BME280;70265;47.576;19.270;2023-08-21T02:15:26;99299.16;;;22.05;98.62
71059;BME280;70265;47.576;19.270;2023-08-21T02:16:32;99296.28;;;22.07;98.34
71059;BME280;70265;47.576;19.270;2023-08-21T02:17:35;99292.78;;;22.06;98.54
71059;BME280;70265;47.576;19.270;2023-08-21T02:18:37;99295.47;;;22.06;98.45
71059;BME280;70265;47.576;19.270;2023-08-21T02:19:40;99298.13;;;22.06;98.30
71059;BME280;70265;47.576;19.270;2023-08-21T02:20:42;99294.88;;;22.04;98.41
71059;BME280;70265;47.576;19.270;2023-08-21T02:21:46;99303.91;;;22.03;98.59
71059;BME280;70265;47.576;19.270;2023-08-21T02:22:47;99301.44;;;22.02;98.54
71059;BME280;70265;47.576;19.270;2023-08-21T02:23:50;99300.03;;;21.99;98.93
71059;BME280;70265;47.576;19.270;2023-08-21T02:24:51;99297.78;;;21.96;99.02
71059;BME280;70265;47.576;19.270;2023-08-21T02:25:55;99296.97;;;21.96;99.32
71059;BME280;70265;47.576;19.270;2023-08-21T02:26:59;99299.88;;;21.94;99.28
71059;BME280;70265;47.576;19.270;2023-08-21T02:28:04;99298.44;;;21.92;99.52
71059;BME280;70265;47.576;19.270;2023-08-21T02:29:05;99292.50;;;21.90;99.74
71059;BME280;70265;47.576;19.270;2023-08-21T02:30:10;99297.41;;;21.86;99.95
71059;BME280;70265;47.576;19.270;2023-08-21T02:31:11;99298.25;;;21.87;100.00
71059;BME280;70265;47.576;19.270;2023-08-21T02:32:15;99301.50;;;21.89;100.00
71059;BME280;70265;47.576;19.270;2023-08-21T02:33:16;99296.59;;;21.92;100.00
71059;BME280;70265;47.576;19.270;2023-08-21T02:34:20;99298.19;;;22.00;99.76
71059;BME280;70265;47.576;19.270;2023-08-21T02:35:21;99288.28;;;22.07;99.09
71059;BME280;70265;47.576;19.270;2023-08-21T02:36:25;99290.31;;;22.05;99.43
71059;BME280;70265;47.576;19.270;2023-08-21T02:37:26;99297.75;;;22.03;99.47
71059;BME280;70265;47.576;19.270;2023-08-21T02:38:27;99291.81;;;22.01;99.71
71059;BME280;70265;47.576;19.270;2023-08-21T02:39:31;99291.97;;;22.06;99.35
71059;BME280;70265;47.576;19.270;2023-08-21T02:40:32;99294.44;;;22.07;99.14
71059;BME280;70265;47.576;19.270;2023-08-21T02:41:35;99291.97;;;22.06;99.31
71059;BME280;70265;47.576;19.270;2023-08-21T02:42:39;99296.28;;;22.07;99.23
71059;BME280;70265;47.576;19.270;2023-08-21T02:43:43;99299.00;;;22.00;99.48
71059;BME280;70265;47.576;19.270;2023-08-21T02:44:44;99296.94;;;22.02;99.33
71059;BME280;70265;47.576;19.270;2023-08-21T02:45:48;99291.38;;;22.04;99.12
71059;BME280;70265;47.576;19.270;2023-08-21T02:46:49;99287.94;;;21.97;99.44
71059;BME280;70265;47.576;19.270;2023-08-21T02:47:52;99292.88;;;21.93;99.43
71059;BME280;70265;47.576;19.270;2023-08-21T02:48:53;99296.81;;;21.91;99.62
71059;BME280;70265;47.576;19.270;2023-08-21T02:49:57;99289.81;;;21.90;99.63
71059;BME280;70265;47.576;19.270;2023-08-21T02:50:59;99294.50;;;21.88;99.40
71059;BME280;70265;47.576;19.270;2023-08-21T02:52:03;99298.25;;;21.87;99.38
71059;BME280;70265;47.576;19.270;2023-08-21T02:53:05;99286.34;;;21.82;99.78
71059;BME280;70265;47.576;19.270;2023-08-21T02:54:08;99294.34;;;21.82;99.54
71059;BME280;70265;47.576;19.270;2023-08-21T02:55:09;99292.50;;;21.83;99.72
71059;BME280;70265;47.576;19.270;2023-08-21T02:56:14;99297.22;;;21.81;99.68
71059;BME280;70265;47.576;19.270;2023-08-21T02:57:15;99297.22;;;21.81;99.89
71059;BME280;70265;47.576;19.270;2023-08-21T02:58:22;99297.88;;;21.76;100.00
71059;BME280;70265;47.576;19.270;2023-08-21T02:59:23;99293.38;;;21.77;100.00
71059;BME280;70265;47.576;19.270;2023-08-21T03:00:27;99290.88;;;21.75;100.00
71059;BME280;70265;47.576;19.270;2023-08-21T03:01:28;99297.88;;;21.76;100.00
71059;BME280;70265;47.576;19.270;2023-08-21T03:02:32;99289.63;;;21.78;100.00
71059;BME280;70265;47.576;19.270;2023-08-21T03:03:33;99289.88;;;21.76;100.00
71059;BME280;70265;47.576;19.270;2023-08-21T03:04:37;99288.22;;;21.75;100.00
71059;BME280;70265;47.576;19.270;2023-08-21T03:05:38;99290.88;;;21.75;100.00
71059;BME280;70265;47.576;19.270;2023-08-21T03:06:42;99297.25;;;21.74;100.00
71059;BME280;70265;47.576;19.270;2023-08-21T03:07:43;99297.91;;;21.70;100.00
71059;BME280;70265;47.576;19.270;2023-08-21T03:08:47;99282.91;;;21.69;100.00
71059;BME280;70265;47.576;19.270;2023-08-21T03:09:48;99294.84;;;21.66;100.00
71059;BME280;70265;47.576;19.270;2023-08-21T03:10:52;99294.22;;;21.64;100.00
71059;BME280;70265;47.576;19.270;2023-08-21T03:11:53;99293.84;;;21.61;100.00
71059;BME280;70265;47.576;19.270;2023-08-21T03:12:57;99280.72;;;21.59;100.00
71059;BME280;70265;47.576;19.270;2023-08-21T03:14:00;99281.97;;;21.57;100.00
71059;BME280;70265;47.576;19.270;2023-08-21T03:15:05;99281.34;;;21.55;100.00
71059;BME280;70265;47.576;19.270;2023-08-21T03:16:07;99283.19;;;21.54;100.00
71059;BME280;70265;47.576;19.270;2023-08-21T03:17:10;99288.09;;;21.57;100.00
71059;BME280;70265;47.576;19.270;2023-08-21T03:18:11;99282.31;;;21.67;100.00
71059;BME280;70265;47.576;19.270;2023-08-21T03:19:15;99282.50;;;21.72;100.00
71059;BME280;70265;47.576;19.270;2023-08-21T03:20:16;99286.38;;;21.76;100.00
71059;BME280;70265;47.576;19.270;2023-08-21T03:21:20;99285.13;;;21.78;100.00
71059;BME280;70265;47.576;19.270;2023-08-21T03:22:23;99282.25;;;21.80;100.00
71059;BME280;70265;47.576;19.270;2023-08-21T03:23:27;99291.25;;;21.86;100.00
71059;BME280;70265;47.576;19.270;2023-08-21T03:24:28;99287.56;;;21.87;100.00
71059;BME280;70265;47.576;19.270;2023-08-21T03:25:32;99294.50;;;21.88;100.00
71059;BME280;70265;47.576;19.270;2023-08-21T03:26:33;99284.88;;;21.87;100.00
71059;BME280;70265;47.576;19.270;2023-08-21T03:27:35;99288.81;;;21.84;100.00
71059;BME280;70265;47.576;19.270;2023-08-21T03:28:40;99293.75;;;21.80;100.00
71059;BME280;70265;47.576;19.270;2023-08-21T03:29:43;99290.31;;;21.73;100.00
71059;BME280;70265;47.576;19.270;2023-08-21T03:30:49;99289.69;;;21.71;100.00
71059;BME280;70265;47.576;19.270;2023-08-21T03:31:52;99292.34;;;21.71;100.00
71059;BME280;70265;47.576;19.270;2023-08-21T03:32:56;99288.06;;;21.70;100.00
71059;BME280;70265;47.576;19.270;2023-08-21T03:33:57;99284.78;;;21.68;100.00
71059;BME280;70265;47.576;19.270;2023-08-21T03:35:00;99288.47;;;21.67;100.00
71059;BME280;70265;47.576;19.270;2023-08-21T03:36:02;99288.69;;;21.66;100.00
71059;BME280;70265;47.576;19.270;2023-08-21T03:37:05;99294.22;;;21.64;100.00
71059;BME280;70265;47.576;19.270;2023-08-21T03:38:07;99288.28;;;21.62;100.00
71059;BME280;70265;47.576;19.270;2023-08-21T03:39:10;99293.00;;;21.60;100.00
71059;BME280;70265;47.576;19.270;2023-08-21T03:40:12;99292.22;;;21.60;100.00
71059;BME280;70265;47.576;19.270;2023-08-21T03:41:15;99289.31;;;21.61;100.00
71059;BME280;70265;47.576;19.270;2023-08-21T03:42:17;99291.41;;;21.59;100.00
71059;BME280;70265;47.576;19.270;2023-08-21T03:43:20;99291.81;;;21.56;100.00
71059;BME280;70265;47.576;19.270;2023-08-21T03:44:21;99289.59;;;21.53;100.00
71059;BME280;70265;47.576;19.270;2023-08-21T03:45:25;99295.53;;;21.49;100.00
71059;BME280;70265;47.576;19.270;2023-08-21T03:46:29;99287.72;;;21.47;100.00
71059;BME280;70265;47.576;19.270;2023-08-21T03:47:30;99292.47;;;21.45;100.00
71059;BME280;70265;47.576;19.270;2023-08-21T03:48:34;99291.69;;;21.38;100.00
71059;BME280;70265;47.576;19.270;2023-08-21T03:49:36;99292.69;;;21.37;100.00
71059;BME280;70265;47.576;19.270;2023-08-21T03:50:39;99288.63;;;21.35;100.00
71059;BME280;70265;47.576;19.270;2023-08-21T03:51:41;99291.50;;;21.33;100.00
71059;BME280;70265;47.576;19.270;2023-08-21T03:52:44;99294.56;;;21.30;100.00
71059;BME280;70265;47.576;19.270;2023-08-21T03:53:45;99295.63;;;21.29;100.00
71059;BME280;70265;47.576;19.270;2023-08-21T03:54:49;99288.63;;;21.28;100.00
71059;BME280;70265;47.576;19.270;2023-08-21T03:55:50;99289.66;;;21.27;100.00
71059;BME280;70265;47.576;19.270;2023-08-21T03:56:54;99293.38;;;21.26;100.00
71059;BME280;70265;47.576;19.270;2023-08-21T03:57:55;99294.19;;;21.26;100.00
71059;BME280;70265;47.576;19.270;2023-08-21T03:58:58;99292.34;;;21.27;100.00
71059;BME280;70265;47.576;19.270;2023-08-21T04:00:00;99293.97;;;21.28;100.00
71059;BME280;70265;47.576;19.270;2023-08-21T04:01:09;99289.88;;;21.25;100.00
71059;BME280;70265;47.576;19.270;2023-08-21T04:02:11;99299.75;;;21.25;100.00
71059;BME280;70265;47.576;19.270;2023-08-21T04:03:15;99288.25;;;21.24;100.00
71059;BME280;70265;47.576;19.270;2023-08-21T04:04:16;99297.66;;;21.27;100.00
71059;BME280;70265;47.576;19.270;2023-08-21T04:05:19;99292.34;;;21.27;100.00
71059;BME280;70265;47.576;19.270;2023-08-21T04:06:20;99290.47;;;21.34;100.00
71059;BME280;70265;47.576;19.270;2023-08-21T04:07:24;99300.50;;;21.39;100.00
71059;BME280;70265;47.576;19.270;2023-08-21T04:08:25;99295.34;;;21.44;100.00
71059;BME280;70265;47.576;19.270;2023-08-21T04:09:29;99300.06;;;21.48;100.00
71059;BME280;70265;47.576;19.270;2023-08-21T04:10:30;99294.72;;;21.48;100.00
71059;BME280;70265;47.576;19.270;2023-08-21T04:11:34;99296.75;;;21.53;100.00
71059;BME280;70265;47.576;19.270;2023-08-21T04:12:36;99296.53;;;21.54;100.00
71059;BME280;70265;47.576;19.270;2023-08-21T04:13:40;99290.78;;;21.57;100.00
71059;BME280;70265;47.576;19.270;2023-08-21T04:14:41;99289.56;;;21.60;100.00
71059;BME280;70265;47.576;19.270;2023-08-21T04:15:45;99290.34;;;21.60;100.00
71059;BME280;70265;47.576;19.270;2023-08-21T04:16:49;99295.69;;;21.60;100.00
71059;BME280;70265;47.576;19.270;2023-08-21T04:17:53;99284.84;;;21.55;100.00
71059;BME280;70265;47.576;19.270;2023-08-21T04:18:54;99297.19;;;21.50;100.00
71059;BME280;70265;47.576;19.270;2023-08-21T04:19:55;99293.06;;;21.47;100.00
71059;BME280;70265;47.576;19.270;2023-08-21T04:20:58;99289.59;;;21.47;100.00
71059;BME280;70265;47.576;19.270;2023-08-21T04:22:00;99293.31;;;21.46;100.00
71059;BME280;70265;47.576;19.270;2023-08-21T04:23:04;99298.41;;;21.47;100.00
71059;BME280;70265;47.576;19.270;2023-08-21T04:24:05;99294.13;;;21.46;100.00
71059;BME280;70265;47.576;19.270;2023-08-21T04:25:09;99293.91;;;21.48;100.00
71059;BME280;70265;47.576;19.270;2023-08-21T04:26:11;99286.91;;;21.53;100.00
71059;BME280;70265;47.576;19.270;2023-08-21T04:27:15;99290.22;;;21.87;100.00
71059;BME280;70265;47.576;19.270;2023-08-21T04:28:16;99299.50;;;21.84;100.00
71059;BME280;70265;47.576;19.270;2023-08-21T04:29:20;99297.75;;;21.58;100.00
71059;BME280;70265;47.576;19.270;2023-08-21T04:30:22;99298.16;;;21.62;100.00
71059;BME280;70265;47.576;19.270;2023-08-21T04:31:25;99293.16;;;21.72;100.00
71059;BME280;70265;47.576;19.270;2023-08-21T04:32:29;99293.56;;;21.75;100.00
71059;BME280;70265;47.576;19.270;2023-08-21T04:33:33;99300.72;;;21.81;100.00
71059;BME280;70265;47.576;19.270;2023-08-21T04:34:35;99300.28;;;21.84;100.00
71059;BME280;70265;47.576;19.270;2023-08-21T04:35:39;99305.19;;;21.88;100.00
71059;BME280;70265;47.576;19.270;2023-08-21T04:36:40;99300.28;;;21.91;100.00
71059;BME280;70265;47.576;19.270;2023-08-21T04:37:46;99310.56;;;21.94;99.94
71059;BME280;70265;47.576;19.270;2023-08-21T04:38:47;99305.59;;;21.98;99.50
71059;BME280;70265;47.576;19.270;2023-08-21T04:39:51;99299.81;;;22.01;99.18
71059;BME280;70265;47.576;19.270;2023-08-21T04:40:52;99314.38;;;22.05;98.91
71059;BME280;70265;47.576;19.270;2023-08-21T04:41:54;99310.03;;;22.10;98.63
71059;BME280;70265;47.576;19.270;2023-08-21T04:42:57;99303.00;;;22.16;97.96
71059;BME280;70265;47.576;19.270;2023-08-21T04:43:58;99306.28;;;22.18;97.91
71059;BME280;70265;47.576;19.270;2023-08-21T04:45:05;99310.16;;;22.22;97.44
71059;BME280;70265;47.576;19.270;2023-08-21T04:46:06;99308.09;;;22.24;97.20
71059;BME280;70265;47.576;19.270;2023-08-21T04:47:20;99310.91;;;22.29;96.79
71059;BME280;70265;47.576;19.270;2023-08-21T04:48:24;99310.09;;;22.35;96.09
71059;BME280;70265;47.576;19.270;2023-08-21T04:49:28;99313.34;;;22.37;96.01
71059;BME280;70265;47.576;19.270;2023-08-21T04:50:29;99319.28;;;22.39;96.39
71059;BME280;70265;47.576;19.270;2023-08-21T04:51:33;99319.28;;;22.39;96.36
71059;BME280;70265;47.576;19.270;2023-08-21T04:52:34;99319.28;;;22.39;96.87
71059;BME280;70265;47.576;19.270;2023-08-21T04:53:38;99320.91;;;22.40;97.26
71059;BME280;70265;47.576;19.270;2023-08-21T04:54:39;99320.72;;;22.42;97.32
71059;BME280;70265;47.576;19.270;2023-08-21T04:55:42;99319.66;;;22.43;97.32
71059;BME280;70265;47.576;19.270;2023-08-21T04:56:43;99327.47;;;22.44;97.52
71059;BME280;70265;47.576;19.270;2023-08-21T04:57:47;99324.81;;;22.44;97.76
71059;BME280;70265;47.576;19.270;2023-08-21T04:58:48;99323.78;;;22.45;97.75
71059;BME280;70265;47.576;19.270;2023-08-21T04:59:52;99328.06;;;22.46;97.90
71059;BME280;70265;47.576;19.270;2023-08-21T05:00:53;99323.34;;;22.48;98.29
71059;BME280;70265;47.576;19.270;2023-08-21T05:01:54;99323.53;;;22.47;98.62
71059;BME280;70265;47.576;19.270;2023-08-21T05:02:58;99325.19;;;22.48;98.54
71059;BME280;70265;47.576;19.270;2023-08-21T05:04:02;99330.31;;;22.49;99.29
71059;BME280;70265;47.576;19.270;2023-08-21T05:05:06;99329.28;;;22.50;99.29
71059;BME280;70265;47.576;19.270;2023-08-21T05:06:09;99332.19;;;22.49;99.44
71059;BME280;70265;47.576;19.270;2023-08-21T05:07:13;99329.72;;;22.47;99.46
71059;BME280;70265;47.576;19.270;2023-08-21T05:08:14;99334.25;;;22.47;99.73
71059;BME280;70265;47.576;19.270;2023-08-21T05:09:17;99332.38;;;22.47;99.54
71059;BME280;70265;47.576;19.270;2023-08-21T05:10:18;99332.38;;;22.47;99.43
71059;BME280;70265;47.576;19.270;2023-08-21T05:11:22;99336.84;;;22.53;100.00
71059;BME280;70265;47.576;19.270;2023-08-21T05:12:23;99332.28;;;22.60;100.00
71059;BME280;70265;47.576;19.270;2023-08-21T05:13:27;99330.25;;;22.56;100.00
71059;BME280;70265;47.576;19.270;2023-08-21T05:14:28;99330.47;;;22.54;100.00
71059;BME280;70265;47.576;19.270;2023-08-21T05:15:32;99331.06;;;22.56;100.00
71059;BME280;70265;47.576;19.270;2023-08-21T05:16:33;99334.56;;;22.57;100.00
71059;BME280;70265;47.576;19.270;2023-08-21T05:17:37;99330.88;;;22.58;100.00
71059;BME280;70265;47.576;19.270;2023-08-21T05:18:38;99338.00;;;22.64;100.00
71059;BME280;70265;47.576;19.270;2023-08-21T05:19:45;99344.38;;;22.69;100.00
71059;BME280;70265;47.576;19.270;2023-08-21T05:20:46;99339.19;;;22.74;99.63
71059;BME280;70265;47.576;19.270;2023-08-21T05:21:50;99339.97;;;22.81;98.99
71059;BME280;70265;47.576;19.270;2023-08-21T05:22:51;99341.97;;;22.86;99.91
71059;BME280;70265;47.576;19.270;2023-08-21T05:23:55;99343.84;;;22.86;99.74
71059;BME280;70265;47.576;19.270;2023-08-21T05:24:56;99339.06;;;22.88;99.80
71059;BME280;70265;47.576;19.270;2023-08-21T05:25:59;99347.66;;;22.96;99.88
71059;BME280;70265;47.576;19.270;2023-08-21T05:27:00;99346.22;;;22.94;99.23
71059;BME280;70265;47.576;19.270;2023-08-21T05:28:06;99342.50;;;22.95;98.91